createdAt,value
2023-03-22T00:02:26.372Z,8.90
2023-03-22T00:05:28.569Z,8.43
2023-03-22T00:08:30.622Z,8.90
2023-03-22T00:11:32.457Z,10.23
2023-03-22T00:14:34.451Z,10.73
2023-03-22T00:17:36.321Z,9.20
2023-03-22T00:20:38.757Z,8.85
2023-03-22T00:23:41.085Z,7.57
2023-03-22T00:26:42.990Z,8.23
2023-03-22T00:29:47.131Z,8.45
2023-03-22T00:32:50.763Z,8.15
2023-03-22T00:36:04.456Z,8.05
2023-03-22T00:39:06.344Z,7.65
2023-03-22T00:42:09.069Z,8.73
2023-03-22T00:45:12.162Z,8.88
2023-03-22T00:48:14.157Z,8.65
2023-03-22T00:51:17.107Z,7.88
2023-03-22T00:54:19.352Z,7.97
2023-03-22T00:57:21.938Z,7.15
2023-03-22T01:00:24.243Z,9.57
2023-03-22T01:03:26.363Z,7.15
2023-03-22T01:06:29.214Z,7.10
2023-03-22T01:09:31.863Z,9.30
2023-03-22T01:15:35.578Z,9.73
2023-03-22T01:18:38.142Z,7.40
2023-03-22T01:21:40.652Z,7.13
2023-03-22T01:24:42.512Z,7.55
2023-03-22T01:27:44.728Z,5.95
2023-03-22T01:30:46.789Z,6.15
2023-03-22T01:33:51.959Z,6.93
2023-03-22T01:36:56.063Z,6.22
2023-03-22T01:39:58.520Z,5.63
2023-03-22T01:43:00.519Z,7.70
2023-03-22T01:46:02.695Z,5.95
2023-03-22T01:49:08.694Z,5.28
2023-03-22T01:52:14.003Z,6.22
2023-03-22T01:55:48.135Z,6.72
2023-03-22T01:58:58.205Z,6.03
2023-03-22T02:02:10.035Z,5.55
2023-03-22T02:05:12.779Z,5.35
2023-03-22T02:08:15.460Z,6.63
2023-03-22T02:11:42.896Z,7.05
2023-03-22T02:15:19.642Z,6.15
2023-03-22T02:18:58.116Z,6.45
2023-03-22T02:22:03.776Z,6.22
2023-03-22T02:25:48.820Z,5.75
2023-03-22T02:32:21.876Z,6.03
2023-03-22T02:38:55.814Z,7.38
2023-03-22T02:42:19.598Z,6.28
2023-03-22T02:45:27.293Z,5.60
2023-03-22T02:48:40.223Z,7.10
2023-03-22T02:52:02.800Z,5.30
2023-03-22T02:55:16.822Z,6.95
2023-03-22T02:58:25.491Z,5.78
2023-03-22T03:01:29.730Z,5.30
2023-03-22T03:04:36.257Z,6.35
2023-03-22T03:07:42.633Z,8.32
2023-03-22T03:10:45.744Z,5.90
2023-03-22T03:13:49.257Z,6.22
2023-03-22T03:16:59.582Z,5.72
2023-03-22T03:20:06.579Z,5.47
2023-03-22T03:23:47.744Z,7.60
2023-03-22T03:27:17.478Z,5.13
2023-03-22T03:30:34.802Z,6.00
2023-03-22T03:33:41.711Z,8.20
2023-03-22T03:36:59.167Z,6.38
2023-03-22T03:40:11.503Z,7.65
2023-03-22T03:43:15.304Z,5.63
2023-03-22T03:46:17.700Z,7.47
2023-03-22T03:49:21.793Z,5.70
2023-03-22T03:52:23.858Z,8.13
2023-03-22T03:55:27.797Z,6.05
2023-03-22T03:58:29.746Z,6.55
2023-03-22T04:01:31.890Z,6.03
2023-03-22T04:04:54.042Z,7.80
2023-03-22T04:07:58.426Z,5.35
2023-03-22T04:11:00.453Z,5.97
2023-03-22T04:14:03.531Z,5.13
2023-03-22T04:17:05.516Z,5.18
2023-03-22T04:20:08.965Z,5.97
2023-03-22T04:23:11.678Z,5.55
2023-03-22T04:26:14.070Z,5.82
2023-03-22T04:29:27.602Z,6.18
2023-03-22T04:32:36.705Z,6.38
2023-03-22T04:38:40.616Z,7.05
2023-03-22T04:41:47.891Z,7.90
2023-03-22T04:44:49.856Z,5.88
2023-03-22T04:47:51.742Z,5.60
2023-03-22T04:50:53.912Z,5.05
2023-03-22T04:54:00.113Z,7.30
2023-03-22T04:57:02.483Z,6.80
2023-03-22T05:00:09.393Z,6.60
2023-03-22T05:03:12.943Z,7.35
2023-03-22T05:06:18.758Z,5.35
2023-03-22T05:09:41.003Z,6.70
2023-03-22T05:12:43.864Z,7.18
2023-03-22T05:16:06.980Z,7.15
2023-03-22T05:19:19.674Z,6.75
2023-03-22T05:22:23.359Z,6.22
2023-03-22T05:25:27.050Z,7.30
2023-03-22T05:28:29.090Z,5.80
2023-03-22T05:31:47.533Z,5.78
2023-03-22T05:34:49.817Z,6.43
2023-03-22T05:38:01.673Z,6.82
2023-03-22T05:41:06.122Z,7.32
2023-03-22T05:44:09.565Z,6.68
2023-03-22T05:47:15.348Z,5.28
2023-03-22T05:53:32.707Z,7.32
2023-03-22T05:56:41.700Z,5.95
2023-03-22T05:59:43.613Z,7.15
2023-03-22T06:02:52.607Z,10.80
2023-03-22T06:05:54.802Z,5.78
2023-03-22T06:09:16.337Z,5.80
2023-03-22T06:12:22.357Z,6.97
2023-03-22T06:15:27.521Z,7.13
2023-03-22T06:18:35.553Z,6.68
2023-03-22T06:21:43.062Z,7.15
2023-03-22T06:24:49.624Z,9.98
2023-03-22T06:27:57.526Z,6.25
2023-03-22T06:31:09.270Z,7.22
2023-03-22T06:34:25.488Z,7.32
2023-03-22T06:37:28.801Z,7.05
2023-03-22T06:40:31.150Z,7.22
2023-03-22T06:43:33.191Z,6.70
2023-03-22T06:46:47.947Z,6.82
2023-03-22T06:50:11.009Z,7.30
2023-03-22T06:53:39.033Z,7.20
2023-03-22T06:56:40.918Z,6.43
2023-03-22T06:59:42.911Z,7.50
2023-03-22T07:02:47.252Z,5.72
2023-03-22T07:06:12.039Z,6.93
2023-03-22T07:09:18.308Z,5.57
2023-03-22T07:12:23.002Z,6.30
2023-03-22T07:15:25.151Z,5.20
2023-03-22T07:18:37.027Z,4.40
2023-03-22T07:21:39.747Z,7.78
2023-03-22T07:24:56.220Z,5.07
2023-03-22T07:28:01.472Z,6.80
2023-03-22T07:31:09.840Z,4.55
2023-03-22T07:34:23.357Z,6.32
2023-03-22T07:37:40.190Z,7.32
2023-03-22T07:40:53.965Z,5.03
2023-03-22T07:44:11.429Z,4.65
2023-03-22T07:47:39.935Z,5.35
2023-03-22T07:50:48.012Z,6.50
2023-03-22T07:53:51.660Z,5.50
2023-03-22T07:56:53.680Z,5.90
2023-03-22T07:59:55.736Z,6.18
2023-03-22T08:03:01.192Z,5.75
2023-03-22T08:06:30.628Z,5.45
2023-03-22T08:09:32.517Z,4.25
2023-03-22T08:12:34.963Z,4.60
2023-03-22T08:15:45.951Z,5.07
2023-03-22T08:18:48.004Z,5.03
2023-03-22T08:21:50.324Z,6.28
2023-03-22T08:25:12.007Z,4.50
2023-03-22T08:28:15.178Z,5.00
2023-03-22T08:31:18.387Z,4.20
2023-03-22T08:34:21.946Z,5.50
2023-03-22T08:37:23.852Z,3.92
2023-03-22T08:40:26.485Z,6.10
2023-03-22T08:43:32.682Z,6.22
2023-03-22T08:46:34.676Z,5.60
2023-03-22T08:49:37.507Z,6.10
2023-03-22T08:52:47.187Z,4.38
2023-03-22T08:55:56.598Z,3.60
2023-03-22T08:59:11.474Z,7.05
2023-03-22T09:02:28.794Z,5.28
2023-03-22T09:05:32.164Z,4.13
2023-03-22T09:08:34.938Z,5.80
2023-03-22T09:11:43.923Z,3.47
2023-03-22T09:14:45.924Z,3.70
2023-03-22T09:17:47.852Z,4.05
2023-03-22T09:20:51.210Z,0.00
2023-03-22T09:23:56.461Z,4.18
2023-03-22T09:27:06.607Z,0.47
2023-03-22T09:30:09.622Z,2.78
2023-03-22T09:33:11.784Z,3.15
2023-03-22T09:36:16.517Z,0.00
2023-03-22T09:39:18.708Z,0.00
2023-03-22T09:42:41.059Z,0.00
2023-03-22T09:45:49.943Z,0.00
2023-03-22T09:48:52.391Z,0.00
2023-03-22T09:51:56.021Z,0.00
2023-03-22T09:54:59.103Z,0.00
2023-03-22T09:58:14.819Z,0.00
2023-03-22T10:01:30.681Z,0.00
2023-03-22T10:04:59.335Z,0.00
2023-03-22T10:08:30.047Z,0.20
2023-03-22T10:11:49.315Z,1.95
2023-03-22T10:15:05.995Z,2.28
2023-03-22T10:18:16.357Z,2.85
2023-03-22T10:21:19.180Z,2.20
2023-03-22T10:24:27.198Z,2.38
2023-03-22T10:27:30.594Z,2.58
2023-03-22T10:30:37.882Z,4.18
2023-03-22T10:33:52.163Z,3.00
2023-03-22T10:36:55.796Z,3.15
2023-03-22T10:40:01.251Z,2.80
2023-03-22T10:43:27.919Z,5.45
2023-03-22T10:46:36.916Z,0.28
2023-03-22T10:49:44.543Z,3.47
2023-03-22T10:53:08.783Z,2.47
2023-03-22T10:56:16.972Z,2.13
2023-03-22T10:59:51.530Z,0.88
2023-03-22T11:02:58.180Z,0.35
2023-03-22T11:06:23.192Z,2.53
2023-03-22T11:09:25.217Z,3.22
2023-03-22T11:12:27.655Z,0.00
2023-03-22T11:15:32.582Z,3.78
2023-03-22T11:18:35.235Z,2.35
2023-03-22T11:21:37.333Z,2.67
2023-03-22T11:24:39.692Z,4.30
2023-03-22T11:27:55.798Z,3.97
2023-03-22T11:31:07.536Z,4.35
2023-03-22T11:34:17.529Z,2.92
2023-03-22T11:37:19.415Z,3.20
2023-03-22T11:40:27.916Z,2.28
2023-03-22T11:43:39.435Z,3.33
2023-03-22T11:46:52.238Z,2.35
2023-03-22T11:49:54.644Z,3.78
2023-03-22T12:03:17.153Z,2.22
2023-03-22T12:06:24.415Z,2.65
2023-03-22T12:09:43.847Z,3.28
2023-03-22T12:12:55.891Z,2.38
2023-03-22T12:16:05.009Z,2.90
2023-03-22T12:19:25.596Z,2.78
2023-03-22T12:22:41.277Z,3.53
2023-03-22T12:25:51.652Z,0.20
2023-03-22T12:28:56.275Z,3.20
2023-03-22T12:32:12.100Z,3.80
2023-03-22T12:35:27.978Z,2.90
2023-03-22T12:38:54.413Z,2.90
2023-03-22T12:42:01.894Z,3.05
2023-03-22T12:45:14.834Z,2.17
2023-03-22T12:48:24.697Z,3.65
2023-03-22T12:51:26.660Z,3.55
2023-03-22T12:57:30.992Z,3.20
2023-03-22T13:00:44.824Z,5.05
2023-03-22T13:03:52.086Z,3.15
2023-03-22T13:06:56.185Z,3.85
2023-03-22T13:10:00.061Z,3.60
2023-03-22T13:13:23.196Z,2.58
2023-03-22T13:16:48.236Z,3.20
2023-03-22T13:19:54.634Z,3.30
2023-03-22T13:23:01.457Z,5.95
2023-03-22T13:26:05.130Z,3.97
2023-03-22T13:29:33.244Z,3.60
2023-03-22T13:32:35.588Z,2.95
2023-03-22T13:35:48.043Z,16.20
2023-03-22T13:39:01.800Z,0.30
2023-03-22T13:42:16.300Z,2.80
2023-03-22T13:45:33.147Z,0.52
2023-03-22T13:48:40.896Z,0.43
2023-03-22T13:51:43.976Z,0.20
2023-03-22T13:54:49.350Z,2.33
2023-03-22T13:57:58.851Z,0.93
2023-03-22T14:01:01.101Z,0.10
2023-03-22T14:04:10.267Z,0.17
2023-03-22T14:07:51.673Z,0.10
2023-03-22T14:11:01.035Z,0.20
2023-03-22T14:14:15.580Z,0.00
2023-03-22T14:17:42.055Z,0.20
2023-03-22T14:20:47.860Z,0.17
2023-03-22T14:54:43.303Z,0.10
2023-03-22T14:57:56.759Z,0.20
2023-03-22T15:01:03.320Z,0.10
2023-03-22T15:04:09.581Z,1.05
2023-03-22T15:07:11.693Z,0.32
2023-03-22T15:10:23.524Z,0.13
2023-03-22T15:13:26.747Z,0.20
2023-03-22T15:16:33.409Z,0.17
2023-03-22T15:19:38.969Z,0.20
2023-03-22T15:22:50.757Z,0.20
2023-03-22T15:25:54.217Z,0.20
2023-03-22T15:28:59.361Z,0.32
2023-03-22T15:32:02.169Z,0.10
2023-03-22T15:35:05.979Z,0.17
2023-03-22T15:38:13.380Z,0.10
2023-03-22T15:41:23.640Z,0.17
2023-03-22T15:44:25.574Z,0.10
2023-03-22T15:47:43.031Z,0.28
2023-03-22T15:50:50.823Z,0.40
2023-03-22T15:53:53.499Z,0.17
2023-03-22T15:56:55.596Z,0.40
2023-03-22T16:00:12.171Z,0.10
2023-03-22T16:03:15.243Z,0.17
2023-03-22T16:06:17.291Z,0.10
2023-03-22T16:12:22.471Z,0.10
2023-03-22T16:15:28.112Z,0.10
2023-03-22T16:18:30.246Z,0.10
2023-03-22T16:21:32.557Z,0.10
2023-03-22T16:24:34.528Z,1.30
2023-03-22T16:27:36.568Z,0.20
2023-03-22T16:30:42.828Z,0.30
2023-03-22T16:33:45.621Z,0.20
2023-03-22T16:36:47.588Z,0.10
2023-03-22T16:39:50.378Z,0.10
2023-03-22T16:42:52.858Z,0.10
2023-03-22T16:45:54.898Z,0.10
2023-03-22T16:51:58.929Z,0.20
2023-03-22T16:55:00.975Z,0.10
2023-03-22T16:58:03.199Z,0.00
2023-03-22T17:01:05.841Z,1.10
2023-03-22T17:04:08.183Z,0.10
2023-03-22T17:07:15.958Z,0.13
2023-03-22T17:10:18.497Z,0.15
2023-03-22T17:13:20.457Z,0.20
2023-03-22T17:16:22.578Z,0.20
2023-03-22T17:22:27.546Z,0.10
2023-03-22T17:25:36.349Z,0.30
2023-03-22T17:28:38.790Z,0.22
2023-03-22T17:31:41.027Z,0.20
2023-03-22T17:34:44.046Z,0.10
2023-03-22T17:37:46.779Z,0.20
2023-03-22T17:40:53.665Z,0.00
2023-03-22T17:43:58.063Z,0.20
2023-03-22T17:50:12.256Z,2.72
2023-03-22T17:53:29.117Z,0.35
2023-03-22T17:57:08.901Z,0.15
2023-03-22T17:59:58.264Z,0.22
2023-03-22T18:03:00.291Z,0.20
2023-03-22T18:09:06.621Z,0.20
2023-03-22T18:12:08.657Z,3.30
2023-03-22T18:15:13.905Z,0.45
2023-03-22T18:18:15.953Z,0.20
2023-03-22T18:21:20.287Z,0.10
2023-03-22T18:24:23.004Z,0.10
2023-03-22T18:27:25.437Z,0.30
2023-03-22T18:30:28.456Z,1.27
2023-03-22T18:33:30.434Z,0.00
2023-03-22T18:36:33.484Z,0.57
2023-03-22T18:42:49.725Z,0.50
2023-03-22T18:46:00.732Z,0.10
2023-03-22T18:49:07.527Z,0.10
2023-03-22T18:55:28.921Z,0.28
2023-03-22T18:58:33.010Z,0.35
2023-03-22T19:01:35.217Z,0.35
2023-03-22T19:07:52.001Z,0.10
2023-03-22T19:11:03.116Z,0.17
2023-03-22T19:17:09.987Z,0.10
2023-03-22T19:23:14.850Z,0.20
2023-03-22T19:26:16.842Z,0.20
2023-03-22T19:29:18.810Z,0.10
2023-03-22T19:32:21.315Z,0.10
2023-03-22T19:35:23.449Z,0.15
2023-03-22T19:38:25.588Z,0.40
2023-03-22T19:44:34.958Z,0.20
2023-03-22T19:47:54.904Z,0.20
2023-03-22T19:51:01.567Z,0.25
2023-03-22T19:54:24.207Z,0.20
2023-03-22T19:57:28.732Z,0.25
2023-03-22T20:00:45.482Z,0.10
2023-03-22T20:03:47.898Z,0.10
2023-03-22T20:06:55.377Z,0.22
2023-03-22T20:09:57.522Z,0.25
2023-03-22T20:12:59.503Z,4.00
2023-03-22T20:16:02.574Z,0.10
2023-03-22T20:19:07.614Z,0.25
2023-03-22T20:22:09.862Z,0.13
2023-03-22T20:25:12.049Z,0.20
2023-03-22T20:28:14.185Z,0.80
2023-03-22T20:31:17.296Z,0.10
2023-03-22T20:34:19.390Z,0.20
2023-03-22T20:37:21.440Z,0.20
2023-03-22T20:40:23.477Z,0.10
2023-03-22T20:43:25.551Z,0.22
2023-03-22T20:46:28.549Z,0.20
2023-03-22T20:49:30.772Z,0.30
2023-03-22T20:52:32.896Z,0.25
2023-03-22T20:55:35.078Z,0.20
2023-03-22T21:01:39.739Z,0.13
2023-03-22T21:04:41.748Z,0.20
2023-03-22T21:07:44.830Z,0.30
2023-03-22T21:10:46.886Z,0.20
2023-03-22T21:13:49.089Z,0.35
2023-03-22T21:16:51.255Z,0.20
2023-03-22T21:19:53.250Z,0.30
2023-03-22T21:22:55.168Z,0.40
2023-03-22T21:25:58.783Z,0.15
2023-03-22T21:29:00.826Z,0.30
2023-03-22T21:32:02.843Z,0.20
2023-03-22T21:35:05.745Z,0.40
2023-03-22T21:38:09.958Z,0.10
2023-03-22T21:41:11.961Z,0.28
2023-03-22T21:44:13.975Z,0.10
2023-03-22T21:47:16.793Z,0.00
2023-03-22T21:50:19.336Z,0.30
2023-03-22T21:53:23.335Z,0.28
2023-03-22T21:56:25.526Z,0.20
2023-03-22T22:02:29.898Z,0.17
2023-03-22T22:05:32.667Z,0.10
2023-03-22T22:08:34.742Z,0.20
2023-03-22T22:11:36.923Z,0.10
2023-03-22T22:14:39.207Z,0.10
2023-03-22T22:17:41.454Z,5.20
2023-03-22T22:23:46.888Z,0.30
2023-03-22T22:26:49.192Z,0.35
2023-03-22T22:29:51.169Z,0.10
2023-03-22T22:32:53.671Z,0.30
2023-03-22T22:35:55.646Z,0.20
2023-03-22T22:38:58.888Z,0.52
2023-03-22T22:42:01.019Z,0.20
2023-03-22T22:45:03.187Z,0.10
2023-03-22T22:48:07.957Z,0.40
2023-03-22T22:51:12.581Z,0.00
2023-03-22T22:54:14.548Z,0.35
2023-03-22T22:57:16.774Z,0.20
2023-03-22T23:00:21.936Z,0.40
2023-03-22T23:03:24.755Z,0.22
2023-03-22T23:06:29.085Z,0.13
2023-03-22T23:09:31.258Z,0.20
2023-03-22T23:12:33.446Z,0.10
2023-03-22T23:15:36.355Z,0.17
2023-03-22T23:18:38.328Z,0.10
2023-03-22T23:21:41.419Z,0.20
2023-03-22T23:24:43.436Z,0.13
2023-03-22T23:27:45.602Z,0.20
2023-03-22T23:30:51.231Z,0.30
2023-03-22T23:33:53.381Z,0.13
2023-03-22T23:36:55.494Z,0.30
2023-03-22T23:40:05.990Z,0.28
2023-03-22T23:43:08.059Z,0.10
2023-03-22T23:46:10.420Z,0.30
2023-03-22T23:49:12.817Z,0.30
2023-03-22T23:52:15.303Z,0.10
2023-03-22T23:58:19.336Z,1.13
